This is the latest recevied weather packets stored in our database for station/object LRSV. If no packets are shown the sender has not sent any weather packets the latest 10 day(s).
| Time | Temp. | Humidity | Pressure | Rain* | Wind** | Luminosity | Snow |
|---|---|---|---|---|---|---|---|
| 1777878201 | 18.89° C | 40% | 1017 hPa | - | - | - | - |
| 1777877300 | 17.78° C | 40% | 1016 hPa | - | - | - | - |
| 1777876401 | 17.78° C | 40% | 1016 hPa | - | - | - | - |
| 1777875501 | 17.22° C | 42% | 1016 hPa | - | - | - | - |
| 1777874601 | 17.22° C | 42% | 1016 hPa | - | - | - | - |
| 1777873701 | 17.22° C | 42% | 1017 hPa | - | - | - | - |
| 1777872802 | 17.22° C | 42% | 1017 hPa | - | - | - | - |
| 1777871901 | 16.11° C | 42% | 1017 hPa | - | - | - | - |
| 1777871010 | 16.11° C | 42% | 1017 hPa | - | - | - | - |
| 1777870101 | 15° C | 45% | 1017 hPa | - | - | - | - |
| 1777869200 | 15° C | 45% | 1017 hPa | - | - | - | - |
| 1777868300 | 13.89° C | 48% | 1016 hPa | - | - | - | - |
| 1777867400 | 13.89° C | 48% | 1016 hPa | - | - | - | - |
| 1777866501 | 12.78° C | 51% | 1016 hPa | - | - | - | - |
| 1777846717 | 12.22° C | 54% | 1017 hPa | - | - | - | - |
| 1777845842 | 12.22° C | 54% | 1017 hPa | - | - | - | - |
| 1777844000 | 12.22° C | 54% | 1017 hPa | - | - | - | - |
| 1777843101 | 11.11° C | 58% | 1017 hPa | - | - | - | - |
| 1777839500 | 12.22° C | 51% | 1017 hPa | - | - | - | - |
| 1777835901 | 12.22° C | 51% | 1018 hPa | - | - | - | - |
| 1777835001 | 12.22° C | 51% | 1018 hPa | - | - | - | - |
| 1777834177 | 12.78° C | 47% | 1018 hPa | - | - | - | - |
| 1777833200 | 12.78° C | 47% | 1018 hPa | - | - | - | - |
| 1777829625 | 12.78° C | 47% | 1018 hPa | - | - | - | - |
| 1777826000 | 16.11° C | 39% | 1018 hPa | - | - | - | - |
* Rain since midnight (hover to see other rain measurements)
** Current wind speed in m/s (hover to see current wind gust speed)